createdAt,value
2019-04-27T06:18:30.169Z,1.77
2019-04-27T06:23:36.743Z,1.33
2019-04-27T06:28:42.887Z,1.53
2019-04-27T06:33:49.752Z,1.57
2019-04-27T06:38:55.169Z,1.50
2019-04-27T06:44:01.916Z,1.47
2019-04-27T06:49:09.019Z,2.03
2019-04-27T06:54:16.557Z,1.70
2019-04-27T06:59:22.616Z,1.63
2019-04-27T07:04:29.461Z,1.40
2019-04-27T07:09:35.063Z,1.60
2019-04-27T07:14:52.379Z,1.87
2019-04-27T07:19:49.724Z,1.70
2019-04-27T07:24:56.120Z,1.93
2019-04-27T07:30:02.922Z,1.97
2019-04-27T07:35:09.952Z,2.33
2019-04-27T07:40:18.724Z,1.90
2019-04-27T07:45:29.540Z,1.97
2019-04-27T07:50:42.145Z,2.30
2019-04-27T07:55:49.517Z,2.60
2019-04-27T08:00:55.358Z,2.63
2019-04-27T08:06:01.996Z,2.20
2019-04-27T08:12:00.883Z,2.47
2019-04-27T08:17:05.704Z,2.33
2019-04-27T08:22:10.585Z,2.53
2019-04-27T08:27:30.110Z,2.30
2019-04-27T08:32:42.673Z,2.20
2019-04-27T08:37:51.473Z,2.20
2019-04-27T08:42:59.872Z,2.43
2019-04-27T08:48:09.366Z,2.30
2019-04-27T08:53:18.691Z,2.30
2019-04-27T08:58:24.603Z,2.50
2019-04-27T09:03:30.571Z,2.40
2019-04-27T09:08:59.319Z,2.67
2019-04-27T09:14:30.306Z,2.73
2019-04-27T09:20:04.744Z,2.40
2019-04-27T09:25:13.176Z,3.10
2019-04-27T09:30:20.332Z,2.57
2019-04-27T09:35:26.482Z,3.10
2019-04-27T09:40:33.628Z,2.90
2019-04-27T09:45:39.217Z,2.73
2019-04-27T09:50:46.645Z,2.83
2019-04-27T09:55:55.793Z,3.00
2019-04-27T10:01:03.564Z,2.33
2019-04-27T10:06:10.043Z,2.53
2019-04-27T10:11:16.233Z,2.30
2019-04-27T10:16:22.482Z,2.70
2019-04-27T10:21:28.594Z,2.47
2019-04-27T10:26:36.221Z,2.40
2019-04-27T10:31:46.071Z,2.20
2019-04-27T10:36:52.579Z,2.80
2019-04-27T10:41:58.505Z,1.50
2019-04-27T10:47:05.924Z,1.33
2019-04-27T10:52:12.173Z,1.30
2019-04-27T10:57:18.861Z,1.43
2019-04-27T11:02:24.736Z,1.50
2019-04-27T11:07:34.201Z,1.97
2019-04-27T11:12:39.355Z,1.33
2019-04-27T11:17:45.824Z,1.93
2019-04-27T11:22:52.627Z,1.77
2019-04-27T11:27:59.196Z,1.80
2019-04-27T11:33:06.988Z,1.47
2019-04-27T11:38:16.566Z,1.47
2019-04-27T11:43:21.895Z,1.80
2019-04-27T11:48:28.428Z,1.30
2019-04-27T11:53:35.961Z,1.30
2019-04-27T11:58:42.106Z,1.63
2019-04-27T12:03:47.981Z,1.33
2019-04-27T12:08:54.556Z,1.17
2019-04-27T12:14:02.677Z,1.63
2019-04-27T12:19:09.541Z,1.60
2019-04-27T12:24:19.948Z,1.53
2019-04-27T12:29:45.422Z,1.27
2019-04-27T12:34:52.227Z,2.20
2019-04-27T12:39:58.357Z,1.57
2019-04-27T12:45:05.764Z,2.20
2019-04-27T12:50:13.177Z,1.40
2019-04-27T12:55:39.344Z,1.10
2019-04-27T13:00:50.765Z,1.03
2019-04-27T13:05:57.595Z,1.30
2019-04-27T13:11:03.829Z,1.00
2019-04-27T13:16:18.628Z,0.90
2019-04-27T13:21:26.255Z,0.80
2019-04-27T13:26:32.804Z,1.03
2019-04-27T13:31:38.077Z,1.10
2019-04-27T13:36:45.696Z,1.10
2019-04-27T13:41:52.492Z,1.50
2019-04-27T13:47:30.773Z,1.17
2019-04-27T13:52:38.424Z,0.90
2019-04-27T13:57:50.480Z,1.20
2019-04-27T14:02:54.808Z,1.10
2019-04-27T14:08:01.813Z,1.20
2019-04-27T14:13:10.722Z,1.37
2019-04-27T14:18:15.743Z,1.50
2019-04-27T14:23:24.885Z,1.60
2019-04-27T14:28:38.810Z,2.27
2019-04-27T14:33:48.390Z,1.27
2019-04-27T14:38:56.402Z,1.40
2019-04-27T14:44:08.811Z,1.37
2019-04-27T14:49:15.807Z,1.20
2019-04-27T14:54:25.474Z,2.43
2019-04-27T14:59:32.698Z,1.60
2019-04-27T15:04:41.824Z,1.37
2019-04-27T15:10:07.317Z,1.30
2019-04-27T15:15:14.709Z,1.33
2019-04-27T15:20:36.652Z,1.20
2019-04-27T15:25:46.834Z,1.10
2019-04-27T15:31:23.597Z,0.90
2019-04-27T15:36:42.675Z,1.30
2019-04-27T15:41:54.201Z,0.87
2019-04-27T15:47:03.659Z,1.03
2019-04-27T15:52:12.528Z,0.97
2019-04-27T15:57:20.870Z,1.40
2019-04-27T16:02:29.008Z,1.37
2019-04-27T16:07:38.884Z,1.10
2019-04-27T16:12:54.915Z,1.00
2019-04-27T16:17:55.852Z,1.07
2019-04-27T16:23:03.261Z,1.23
2019-04-27T16:28:09.797Z,1.50
2019-04-27T16:33:20.260Z,5.63
2019-04-27T16:38:48.006Z,2.20
2019-04-27T16:43:58.044Z,1.80
2019-04-27T16:49:11.333Z,1.90
2019-04-27T16:54:17.415Z,2.43
2019-04-27T16:59:42.327Z,2.20
2019-04-27T17:04:31.395Z,2.20
2019-04-27T17:09:42.158Z,2.20
2019-04-27T17:14:58.045Z,2.33
2019-04-27T17:20:08.539Z,2.20
2019-04-27T17:25:20.085Z,2.13
2019-04-27T17:30:24.638Z,2.47
2019-04-27T17:35:34.759Z,2.17
2019-04-27T17:40:39.076Z,2.50
2019-04-27T17:45:45.341Z,2.40
2019-04-27T17:50:51.652Z,2.77
2019-04-27T17:56:02.901Z,2.70
2019-04-27T18:01:13.921Z,2.63
2019-04-27T18:06:20.478Z,2.80
2019-04-27T18:11:28.595Z,2.83
2019-04-27T18:16:39.081Z,2.60
2019-04-27T18:22:07.753Z,2.20
2019-04-27T18:27:37.766Z,1.70
2019-04-27T18:32:43.066Z,1.60
2019-04-27T18:37:53.648Z,1.73
2019-04-27T18:42:57.960Z,2.17
2019-04-27T18:48:13.600Z,2.00
2019-04-27T18:53:28.850Z,2.00
2019-04-27T18:58:36.798Z,1.93
2019-04-27T19:03:43.675Z,3.10
2019-04-27T19:08:50.444Z,2.00
2019-04-27T19:13:58.916Z,2.50
2019-04-27T19:19:05.105Z,3.20
2019-04-27T19:24:10.960Z,3.40
2019-04-27T19:29:26.842Z,3.20
2019-04-27T19:34:33.056Z,2.87
2019-04-27T19:39:39.559Z,2.97
2019-04-27T19:44:52.310Z,3.20
2019-04-27T19:50:00.149Z,2.87
2019-04-27T19:55:08.461Z,3.00
2019-04-27T20:00:29.967Z,3.03
2019-04-27T20:05:34.755Z,3.07
2019-04-27T20:10:43.295Z,2.70
2019-04-27T20:15:51.200Z,2.47
2019-04-27T20:20:58.559Z,2.73
2019-04-27T20:26:04.858Z,2.53
2019-04-27T20:31:12.727Z,2.50
2019-04-27T20:36:21.389Z,2.63
2019-04-27T20:41:31.917Z,2.60
2019-04-27T20:46:41.498Z,2.60
2019-04-27T20:52:02.566Z,3.33
2019-04-27T20:57:08.076Z,2.87
2019-04-27T21:02:38.786Z,3.40
2019-04-27T21:07:53.720Z,2.90
2019-04-27T21:13:00.975Z,3.10
2019-04-27T21:18:07.458Z,3.07
2019-04-27T21:23:14.702Z,2.90
2019-04-27T21:28:20.064Z,2.97
2019-04-27T21:33:26.122Z,3.00
2019-04-27T21:38:37.100Z,3.20
2019-04-27T21:43:43.822Z,2.83
2019-04-27T21:48:50.038Z,2.30
2019-04-27T21:54:05.039Z,2.80
2019-04-27T21:59:11.373Z,2.80
2019-04-27T22:04:17.090Z,2.60
2019-04-27T22:09:26.519Z,2.83
2019-04-27T22:14:32.917Z,2.40
2019-04-27T22:19:41.347Z,2.60
2019-04-27T22:24:51.371Z,2.53
2019-04-27T22:30:00.773Z,2.70
2019-04-27T22:35:07.892Z,2.40
2019-04-27T22:40:42.701Z,2.10
2019-04-27T22:45:51.069Z,2.03
2019-04-27T22:51:03.773Z,2.77
2019-04-27T22:56:16.728Z,1.87
2019-04-27T23:01:32.306Z,2.40
2019-04-27T23:06:37.835Z,2.47
2019-04-27T23:11:44.290Z,2.33
2019-04-27T23:16:52.404Z,2.40
2019-04-27T23:21:58.518Z,2.43
2019-04-27T23:27:05.289Z,2.60
2019-04-27T23:32:21.090Z,2.07
2019-04-27T23:37:26.737Z,1.87
2019-04-27T23:42:38.508Z,2.00
2019-04-27T23:47:45.814Z,2.40
2019-04-27T23:53:22.540Z,1.97
2019-04-27T23:58:32.538Z,2.50
